Los Angeles, California
Traffic Map
Current Weather Conditions
Los Angeles, California
Few Clouds
Few Clouds
14°
Feels Like: 14°
Wind Chill: 14° Ceiling: Unl
Heat Index: 14° Visibility: 7mi
Dew Point: 12° Wind: 0mph
Humidity: 89% Direction: ° ()
Pressure: 30.02in Gusts: 0mph
Raw Report DataKCQT 211258Z AUTO 00000KT 7SM FEW007 14/12 A3002 RMK AO2 T01390122
Traffic Incident Summary
Active as of:
Severity:
Category:
InformationThere was an issue retrieving the traffic information for this location. Please try a different location or try again shortly.
Advertisements
At Last! Intellicast now available for iPhone and Android